Reading, VT (05062)

10:37 AM EDT on April 26, 2017 (GMT -0400)
Caper Hill | | Change Station

Elev 1753 ft 43.52 °N, 72.53 °W | Updated 2 seconds ago

Overcast
Overcast
48.2 °F
Feels Like 48 °F
N
0.2
Wind Variable Wind from NE
Gusts 2.5 mph

Today
High -- | Low -- °F
--% Chance of Precip.
Yesterday
High -- | Low -- °F
Precip. -- in
Pressure 29.93 in
Visibility 2.0 miles
Clouds Mostly Cloudy 600 ft
Overcast 1100 ft
Windchill 48 °F
Dew Point 40 °F
Humidity 73%
Rainfall 0.33 in
Snow Depth Not available.
5:49 AM 7:46 PM
New Moon, 0% visible
SPECI KVSF 261430Z AUTO 11003KT 2SM -RA BR BKN006 OVC011 10/09 A2993 RMK AO2 P0002 T01000089
Pressure 29.93 in
Visibility 2.0 miles
Clouds Mostly Cloudy 600 ft
Overcast 1100 ft
Windchill 48 °F
Dew Point 40 °F
Humidity 73%
Rainfall 0.33 in
Snow Depth Not available.
5:49 AM 7:46 PM
New Moon, 0% visible
SPECI KVSF 261430Z AUTO 11003KT 2SM -RA BR BKN006 OVC011 10/09 A2993 RMK AO2 P0002 T01000089

Get Severe Weather Alerts

Thanks for signing up!

Be on the lookout for a verification email in your inbox.

You'll start receiving the daily forecast at 8 AM.

×

10-Day Weather Forecast

Almanac

Astronomy

Apr. 26, 2017 Rise Set
Actual Time
Civil Twilight
Nautical Twilight
Astronomical Twilight
Moon
Length of Visible Light
Length of Day
Tomorrow will be .
, % of the Moon is Illuminated

Today's Extremes

State Highs State Lows

Community

WunderPhotos

WunderBlog® & News

Nearby

Air Quality

  Air Quality AQ Index Pollutant
Not available.

Snow Depth

Station Depth Elevation

Earthquake Activity

City Distance Mag. Time & Date
Minimum magnitude displayed is 2.5.

Coastal Water Temperatures

Place Temperature

Stations

Nearby Weather Stations

Station Location Temp. Windchill Dew Point Humidity Wind Precip. Elev Updated Type
                   

Watches & Warnings

There are currently no watches in effect.